sensor_id;sensor_type;location;lat;lon;timestamp;P1;durP1;ratioP1;P2;durP2;ratioP2
71207;SDS011;58938;49.868;8.646;2023-09-30T00:01:59;7.50;;;3.00;;
71207;SDS011;58938;49.868;8.646;2023-09-30T00:04:25;8.20;;;2.85;;
71207;SDS011;58938;49.868;8.646;2023-09-30T00:06:52;9.52;;;2.50;;
71207;SDS011;58938;49.868;8.646;2023-09-30T00:09:18;10.23;;;3.00;;
71207;SDS011;58938;49.868;8.646;2023-09-30T00:11:44;7.90;;;2.70;;
71207;SDS011;58938;49.868;8.646;2023-09-30T00:14:10;6.13;;;2.80;;
71207;SDS011;58938;49.868;8.646;2023-09-30T00:16:36;8.52;;;2.97;;
71207;SDS011;58938;49.868;8.646;2023-09-30T00:19:02;6.60;;;3.13;;
71207;SDS011;58938;49.868;8.646;2023-09-30T00:21:28;7.97;;;3.50;;
71207;SDS011;58938;49.868;8.646;2023-09-30T00:23:54;8.43;;;2.80;;
71207;SDS011;58938;49.868;8.646;2023-09-30T00:26:20;6.72;;;2.60;;
71207;SDS011;58938;49.868;8.646;2023-09-30T00:28:47;6.45;;;2.58;;
71207;SDS011;58938;49.868;8.646;2023-09-30T00:31:13;8.03;;;2.57;;
71207;SDS011;58938;49.868;8.646;2023-09-30T00:33:39;6.70;;;3.00;;
71207;SDS011;58938;49.868;8.646;2023-09-30T00:36:05;7.35;;;2.67;;
71207;SDS011;58938;49.868;8.646;2023-09-30T00:38:32;12.07;;;2.85;;
71207;SDS011;58938;49.868;8.646;2023-09-30T00:40:58;7.43;;;2.90;;
71207;SDS011;58938;49.868;8.646;2023-09-30T00:43:24;7.38;;;2.90;;
71207;SDS011;58938;49.868;8.646;2023-09-30T00:45:55;8.85;;;3.47;;
71207;SDS011;58938;49.868;8.646;2023-09-30T00:48:27;7.63;;;3.30;;
71207;SDS011;58938;49.868;8.646;2023-09-30T00:50:53;6.30;;;3.10;;
71207;SDS011;58938;49.868;8.646;2023-09-30T00:53:19;10.57;;;3.10;;
71207;SDS011;58938;49.868;8.646;2023-09-30T00:55:45;8.15;;;3.50;;
71207;SDS011;58938;49.868;8.646;2023-09-30T00:58:11;7.63;;;3.00;;
71207;SDS011;58938;49.868;8.646;2023-09-30T01:00:37;7.22;;;3.30;;
71207;SDS011;58938;49.868;8.646;2023-09-30T01:03:03;9.13;;;3.57;;
71207;SDS011;58938;49.868;8.646;2023-09-30T01:05:30;7.07;;;3.40;;
71207;SDS011;58938;49.868;8.646;2023-09-30T01:07:56;9.30;;;3.58;;
71207;SDS011;58938;49.868;8.646;2023-09-30T01:10:22;7.22;;;3.13;;
71207;SDS011;58938;49.868;8.646;2023-09-30T01:12:48;7.43;;;3.20;;
71207;SDS011;58938;49.868;8.646;2023-09-30T01:15:14;8.40;;;3.47;;
71207;SDS011;58938;49.868;8.646;2023-09-30T01:17:40;9.88;;;3.50;;
71207;SDS011;58938;49.868;8.646;2023-09-30T01:20:06;8.52;;;3.40;;
71207;SDS011;58938;49.868;8.646;2023-09-30T01:22:33;7.40;;;3.50;;
71207;SDS011;58938;49.868;8.646;2023-09-30T01:24:59;8.73;;;3.03;;
71207;SDS011;58938;49.868;8.646;2023-09-30T01:27:25;8.80;;;3.25;;
71207;SDS011;58938;49.868;8.646;2023-09-30T01:29:51;6.78;;;3.22;;
71207;SDS011;58938;49.868;8.646;2023-09-30T01:32:17;6.68;;;3.20;;
71207;SDS011;58938;49.868;8.646;2023-09-30T01:34:43;7.60;;;3.50;;
71207;SDS011;58938;49.868;8.646;2023-09-30T01:37:09;7.78;;;3.13;;
71207;SDS011;58938;49.868;8.646;2023-09-30T01:39:35;10.73;;;3.72;;
71207;SDS011;58938;49.868;8.646;2023-09-30T01:42:01;10.68;;;3.78;;
71207;SDS011;58938;49.868;8.646;2023-09-30T01:44:27;9.10;;;3.77;;
71207;SDS011;58938;49.868;8.646;2023-09-30T01:46:53;9.83;;;3.90;;
71207;SDS011;58938;49.868;8.646;2023-09-30T01:49:19;10.30;;;4.13;;
71207;SDS011;58938;49.868;8.646;2023-09-30T01:51:48;14.65;;;5.38;;
71207;SDS011;58938;49.868;8.646;2023-09-30T01:54:14;13.38;;;5.03;;
71207;SDS011;58938;49.868;8.646;2023-09-30T01:56:40;10.70;;;4.27;;
71207;SDS011;58938;49.868;8.646;2023-09-30T01:59:06;9.50;;;4.53;;
71207;SDS011;58938;49.868;8.646;2023-09-30T02:01:32;9.95;;;4.15;;
71207;SDS011;58938;49.868;8.646;2023-09-30T02:03:58;9.37;;;4.53;;
71207;SDS011;58938;49.868;8.646;2023-09-30T02:06:24;9.77;;;4.07;;
71207;SDS011;58938;49.868;8.646;2023-09-30T02:08:50;8.25;;;3.95;;
71207;SDS011;58938;49.868;8.646;2023-09-30T02:11:17;10.15;;;4.25;;
71207;SDS011;58938;49.868;8.646;2023-09-30T02:13:42;12.13;;;4.57;;
71207;SDS011;58938;49.868;8.646;2023-09-30T02:16:12;12.63;;;5.00;;
71207;SDS011;58938;49.868;8.646;2023-09-30T02:18:39;10.60;;;4.32;;
71207;SDS011;58938;49.868;8.646;2023-09-30T02:21:10;10.00;;;4.20;;
71207;SDS011;58938;49.868;8.646;2023-09-30T02:23:36;13.45;;;4.68;;
71207;SDS011;58938;49.868;8.646;2023-09-30T02:26:02;13.37;;;5.17;;
71207;SDS011;58938;49.868;8.646;2023-09-30T02:28:28;10.77;;;4.65;;
71207;SDS011;58938;49.868;8.646;2023-09-30T02:30:57;9.73;;;4.15;;
71207;SDS011;58938;49.868;8.646;2023-09-30T02:33:23;10.55;;;3.65;;
71207;SDS011;58938;49.868;8.646;2023-09-30T02:35:51;11.40;;;4.20;;
71207;SDS011;58938;49.868;8.646;2023-09-30T02:38:17;11.00;;;4.17;;
71207;SDS011;58938;49.868;8.646;2023-09-30T02:40:45;15.82;;;5.22;;
71207;SDS011;58938;49.868;8.646;2023-09-30T02:43:13;13.88;;;5.55;;
71207;SDS011;58938;49.868;8.646;2023-09-30T02:45:39;14.90;;;4.90;;
71207;SDS011;58938;49.868;8.646;2023-09-30T02:48:05;10.13;;;4.60;;
71207;SDS011;58938;49.868;8.646;2023-09-30T02:50:31;8.50;;;3.93;;
71207;SDS011;58938;49.868;8.646;2023-09-30T02:52:57;11.00;;;4.32;;
71207;SDS011;58938;49.868;8.646;2023-09-30T02:55:23;13.50;;;3.33;;
71207;SDS011;58938;49.868;8.646;2023-09-30T02:57:49;8.77;;;3.83;;
71207;SDS011;58938;49.868;8.646;2023-09-30T03:00:15;9.60;;;3.93;;
71207;SDS011;58938;49.868;8.646;2023-09-30T03:02:48;10.75;;;3.88;;
71207;SDS011;58938;49.868;8.646;2023-09-30T03:05:14;11.27;;;3.40;;
71207;SDS011;58938;49.868;8.646;2023-09-30T03:07:40;7.68;;;4.18;;
71207;SDS011;58938;49.868;8.646;2023-09-30T03:10:06;11.30;;;3.50;;
71207;SDS011;58938;49.868;8.646;2023-09-30T03:12:33;13.38;;;3.85;;
71207;SDS011;58938;49.868;8.646;2023-09-30T03:14:59;11.15;;;3.50;;
71207;SDS011;58938;49.868;8.646;2023-09-30T03:17:29;12.50;;;5.55;;
71207;SDS011;58938;49.868;8.646;2023-09-30T03:19:55;12.82;;;4.18;;
71207;SDS011;58938;49.868;8.646;2023-09-30T03:22:22;10.73;;;3.43;;
71207;SDS011;58938;49.868;8.646;2023-09-30T03:24:48;10.57;;;4.03;;
71207;SDS011;58938;49.868;8.646;2023-09-30T03:27:14;11.65;;;3.78;;
71207;SDS011;58938;49.868;8.646;2023-09-30T03:29:41;9.68;;;3.53;;
71207;SDS011;58938;49.868;8.646;2023-09-30T03:32:07;11.82;;;3.80;;
71207;SDS011;58938;49.868;8.646;2023-09-30T03:34:34;13.50;;;4.30;;
71207;SDS011;58938;49.868;8.646;2023-09-30T03:37:01;11.00;;;3.97;;
71207;SDS011;58938;49.868;8.646;2023-09-30T03:39:27;9.90;;;3.30;;
71207;SDS011;58938;49.868;8.646;2023-09-30T03:41:54;10.50;;;4.20;;
71207;SDS011;58938;49.868;8.646;2023-09-30T03:44:21;9.53;;;4.03;;
71207;SDS011;58938;49.868;8.646;2023-09-30T03:46:48;12.38;;;4.53;;
71207;SDS011;58938;49.868;8.646;2023-09-30T03:49:14;12.05;;;4.25;;
71207;SDS011;58938;49.868;8.646;2023-09-30T03:51:41;10.65;;;3.70;;
71207;SDS011;58938;49.868;8.646;2023-09-30T03:54:07;9.40;;;3.93;;
71207;SDS011;58938;49.868;8.646;2023-09-30T03:56:33;11.97;;;3.53;;
71207;SDS011;58938;49.868;8.646;2023-09-30T03:58:59;11.25;;;3.88;;
71207;SDS011;58938;49.868;8.646;2023-09-30T04:01:25;12.57;;;5.20;;
71207;SDS011;58938;49.868;8.646;2023-09-30T04:03:52;13.02;;;4.28;;
71207;SDS011;58938;49.868;8.646;2023-09-30T04:06:21;12.60;;;4.32;;
71207;SDS011;58938;49.868;8.646;2023-09-30T04:08:47;13.23;;;4.13;;
71207;SDS011;58938;49.868;8.646;2023-09-30T04:11:13;10.43;;;4.15;;
71207;SDS011;58938;49.868;8.646;2023-09-30T04:13:43;11.80;;;3.67;;
71207;SDS011;58938;49.868;8.646;2023-09-30T04:16:10;10.85;;;3.63;;
71207;SDS011;58938;49.868;8.646;2023-09-30T04:18:36;10.03;;;3.77;;
71207;SDS011;58938;49.868;8.646;2023-09-30T04:21:05;9.38;;;3.40;;
71207;SDS011;58938;49.868;8.646;2023-09-30T04:23:32;10.00;;;3.83;;
71207;SDS011;58938;49.868;8.646;2023-09-30T04:26:01;9.65;;;3.42;;
71207;SDS011;58938;49.868;8.646;2023-09-30T04:28:27;13.55;;;4.03;;
71207;SDS011;58938;49.868;8.646;2023-09-30T04:30:53;12.70;;;3.83;;
71207;SDS011;58938;49.868;8.646;2023-09-30T04:33:19;9.65;;;3.67;;
71207;SDS011;58938;49.868;8.646;2023-09-30T04:35:46;13.23;;;3.85;;
71207;SDS011;58938;49.868;8.646;2023-09-30T04:38:12;9.52;;;3.80;;
71207;SDS011;58938;49.868;8.646;2023-09-30T04:40:38;11.57;;;3.60;;
71207;SDS011;58938;49.868;8.646;2023-09-30T04:43:04;9.55;;;4.03;;
71207;SDS011;58938;49.868;8.646;2023-09-30T04:45:30;10.23;;;4.13;;
71207;SDS011;58938;49.868;8.646;2023-09-30T04:47:58;11.00;;;4.00;;
71207;SDS011;58938;49.868;8.646;2023-09-30T04:50:23;14.93;;;4.17;;
71207;SDS011;58938;49.868;8.646;2023-09-30T04:52:53;12.55;;;3.95;;
71207;SDS011;58938;49.868;8.646;2023-09-30T04:55:19;12.02;;;4.38;;
71207;SDS011;58938;49.868;8.646;2023-09-30T04:57:45;12.02;;;4.43;;
71207;SDS011;58938;49.868;8.646;2023-09-30T05:00:13;9.38;;;4.28;;
71207;SDS011;58938;49.868;8.646;2023-09-30T05:02:39;11.33;;;4.43;;
71207;SDS011;58938;49.868;8.646;2023-09-30T05:05:05;11.85;;;4.65;;
71207;SDS011;58938;49.868;8.646;2023-09-30T05:07:31;8.55;;;4.03;;
71207;SDS011;58938;49.868;8.646;2023-09-30T05:09:57;9.55;;;3.88;;
71207;SDS011;58938;49.868;8.646;2023-09-30T05:12:24;12.73;;;4.32;;
71207;SDS011;58938;49.868;8.646;2023-09-30T05:14:50;13.97;;;4.20;;
71207;SDS011;58938;49.868;8.646;2023-09-30T05:17:17;12.30;;;4.32;;
71207;SDS011;58938;49.868;8.646;2023-09-30T05:19:43;12.85;;;4.35;;
71207;SDS011;58938;49.868;8.646;2023-09-30T05:22:09;10.05;;;4.13;;
71207;SDS011;58938;49.868;8.646;2023-09-30T05:24:35;11.37;;;4.93;;
71207;SDS011;58938;49.868;8.646;2023-09-30T05:27:01;12.27;;;4.40;;
71207;SDS011;58938;49.868;8.646;2023-09-30T05:29:27;9.35;;;3.75;;
71207;SDS011;58938;49.868;8.646;2023-09-30T05:31:53;10.90;;;4.72;;
71207;SDS011;58938;49.868;8.646;2023-09-30T05:34:19;12.00;;;4.53;;
71207;SDS011;58938;49.868;8.646;2023-09-30T05:36:45;10.03;;;3.90;;
71207;SDS011;58938;49.868;8.646;2023-09-30T05:39:11;14.50;;;5.22;;
71207;SDS011;58938;49.868;8.646;2023-09-30T05:41:37;10.65;;;4.32;;
71207;SDS011;58938;49.868;8.646;2023-09-30T05:44:03;12.38;;;3.95;;
71207;SDS011;58938;49.868;8.646;2023-09-30T05:46:30;11.63;;;4.10;;
71207;SDS011;58938;49.868;8.646;2023-09-30T05:48:56;13.18;;;4.90;;
71207;SDS011;58938;49.868;8.646;2023-09-30T05:51:22;12.77;;;4.55;;
71207;SDS011;58938;49.868;8.646;2023-09-30T05:53:48;12.25;;;4.70;;
71207;SDS011;58938;49.868;8.646;2023-09-30T05:56:14;11.53;;;4.93;;
71207;SDS011;58938;49.868;8.646;2023-09-30T05:58:41;12.13;;;4.47;;
71207;SDS011;58938;49.868;8.646;2023-09-30T06:01:07;16.67;;;4.68;;
71207;SDS011;58938;49.868;8.646;2023-09-30T06:03:36;12.98;;;4.82;;
71207;SDS011;58938;49.868;8.646;2023-09-30T06:06:10;15.23;;;5.05;;
71207;SDS011;58938;49.868;8.646;2023-09-30T06:08:37;14.00;;;5.37;;
71207;SDS011;58938;49.868;8.646;2023-09-30T06:11:03;10.40;;;4.03;;
71207;SDS011;58938;49.868;8.646;2023-09-30T06:13:29;14.70;;;4.72;;
71207;SDS011;58938;49.868;8.646;2023-09-30T06:15:56;11.18;;;4.50;;
71207;SDS011;58938;49.868;8.646;2023-09-30T06:18:22;12.55;;;4.68;;
71207;SDS011;58938;49.868;8.646;2023-09-30T06:20:48;11.80;;;4.10;;
71207;SDS011;58938;49.868;8.646;2023-09-30T06:23:15;12.73;;;4.40;;
71207;SDS011;58938;49.868;8.646;2023-09-30T06:25:42;10.38;;;4.55;;
71207;SDS011;58938;49.868;8.646;2023-09-30T06:28:08;13.73;;;5.00;;
71207;SDS011;58938;49.868;8.646;2023-09-30T06:30:34;12.43;;;4.03;;
71207;SDS011;58938;49.868;8.646;2023-09-30T06:33:00;13.95;;;4.70;;
71207;SDS011;58938;49.868;8.646;2023-09-30T06:35:27;13.30;;;4.40;;
71207;SDS011;58938;49.868;8.646;2023-09-30T06:37:54;10.00;;;4.07;;
71207;SDS011;58938;49.868;8.646;2023-09-30T06:40:20;14.40;;;5.55;;
71207;SDS011;58938;49.868;8.646;2023-09-30T06:42:47;16.97;;;5.40;;
71207;SDS011;58938;49.868;8.646;2023-09-30T06:45:13;13.80;;;4.50;;
71207;SDS011;58938;49.868;8.646;2023-09-30T06:47:40;12.52;;;5.10;;
71207;SDS011;58938;49.868;8.646;2023-09-30T06:50:10;11.48;;;3.92;;
71207;SDS011;58938;49.868;8.646;2023-09-30T06:52:37;11.55;;;4.55;;
71207;SDS011;58938;49.868;8.646;2023-09-30T06:55:04;16.67;;;5.40;;
71207;SDS011;58938;49.868;8.646;2023-09-30T06:57:31;14.40;;;4.53;;
71207;SDS011;58938;49.868;8.646;2023-09-30T06:59:57;15.20;;;4.50;;
71207;SDS011;58938;49.868;8.646;2023-09-30T07:02:23;13.65;;;4.95;;
71207;SDS011;58938;49.868;8.646;2023-09-30T07:04:49;14.20;;;4.30;;
71207;SDS011;58938;49.868;8.646;2023-09-30T07:07:15;12.18;;;4.60;;
71207;SDS011;58938;49.868;8.646;2023-09-30T07:09:43;16.02;;;5.43;;
71207;SDS011;58938;49.868;8.646;2023-09-30T07:12:09;11.23;;;4.18;;
71207;SDS011;58938;49.868;8.646;2023-09-30T07:14:35;13.07;;;4.57;;
71207;SDS011;58938;49.868;8.646;2023-09-30T07:17:01;17.45;;;4.68;;
71207;SDS011;58938;49.868;8.646;2023-09-30T07:19:29;10.90;;;4.55;;
71207;SDS011;58938;49.868;8.646;2023-09-30T07:21:55;11.30;;;4.20;;
71207;SDS011;58938;49.868;8.646;2023-09-30T07:24:21;13.40;;;4.82;;
71207;SDS011;58938;49.868;8.646;2023-09-30T07:26:48;9.63;;;4.23;;
71207;SDS011;58938;49.868;8.646;2023-09-30T07:29:14;12.07;;;4.70;;
71207;SDS011;58938;49.868;8.646;2023-09-30T07:31:40;11.77;;;4.65;;
71207;SDS011;58938;49.868;8.646;2023-09-30T07:34:06;16.85;;;5.10;;
71207;SDS011;58938;49.868;8.646;2023-09-30T07:36:31;11.50;;;3.80;;
71207;SDS011;58938;49.868;8.646;2023-09-30T07:38:58;9.80;;;4.15;;
71207;SDS011;58938;49.868;8.646;2023-09-30T07:41:25;9.88;;;4.50;;
71207;SDS011;58938;49.868;8.646;2023-09-30T07:43:51;13.32;;;5.03;;
71207;SDS011;58938;49.868;8.646;2023-09-30T07:46:17;11.70;;;4.60;;
71207;SDS011;58938;49.868;8.646;2023-09-30T07:48:43;16.20;;;4.75;;
71207;SDS011;58938;49.868;8.646;2023-09-30T07:51:09;16.23;;;5.40;;
71207;SDS011;58938;49.868;8.646;2023-09-30T07:53:38;13.00;;;4.60;;
71207;SDS011;58938;49.868;8.646;2023-09-30T07:56:05;11.00;;;4.32;;
71207;SDS011;58938;49.868;8.646;2023-09-30T07:58:31;11.87;;;4.50;;
71207;SDS011;58938;49.868;8.646;2023-09-30T08:00:58;11.80;;;4.88;;
71207;SDS011;58938;49.868;8.646;2023-09-30T08:03:25;12.63;;;4.30;;
71207;SDS011;58938;49.868;8.646;2023-09-30T08:05:51;12.13;;;4.40;;
71207;SDS011;58938;49.868;8.646;2023-09-30T08:08:17;13.40;;;4.85;;
71207;SDS011;58938;49.868;8.646;2023-09-30T08:10:43;12.50;;;4.73;;
71207;SDS011;58938;49.868;8.646;2023-09-30T08:13:09;13.90;;;4.80;;
71207;SDS011;58938;49.868;8.646;2023-09-30T08:15:35;11.63;;;4.75;;
71207;SDS011;58938;49.868;8.646;2023-09-30T08:18:02;11.68;;;4.82;;
71207;SDS011;58938;49.868;8.646;2023-09-30T08:20:31;11.23;;;4.73;;
71207;SDS011;58938;49.868;8.646;2023-09-30T08:22:56;12.27;;;4.60;;
71207;SDS011;58938;49.868;8.646;2023-09-30T08:25:23;10.00;;;4.03;;
71207;SDS011;58938;49.868;8.646;2023-09-30T08:27:49;13.52;;;4.95;;
71207;SDS011;58938;49.868;8.646;2023-09-30T08:30:16;9.75;;;4.90;;
71207;SDS011;58938;49.868;8.646;2023-09-30T08:32:42;11.47;;;4.50;;
71207;SDS011;58938;49.868;8.646;2023-09-30T08:35:08;12.98;;;4.43;;
71207;SDS011;58938;49.868;8.646;2023-09-30T08:37:34;29.27;;;4.80;;
71207;SDS011;58938;49.868;8.646;2023-09-30T08:40:01;11.23;;;4.47;;
71207;SDS011;58938;49.868;8.646;2023-09-30T08:42:29;11.80;;;4.57;;
71207;SDS011;58938;49.868;8.646;2023-09-30T08:44:57;13.30;;;5.72;;
71207;SDS011;58938;49.868;8.646;2023-09-30T08:47:27;9.35;;;4.72;;
71207;SDS011;58938;49.868;8.646;2023-09-30T08:49:54;18.70;;;4.85;;
71207;SDS011;58938;49.868;8.646;2023-09-30T08:52:22;14.32;;;5.53;;
71207;SDS011;58938;49.868;8.646;2023-09-30T08:54:48;13.13;;;5.33;;
71207;SDS011;58938;49.868;8.646;2023-09-30T08:57:14;12.15;;;4.18;;
71207;SDS011;58938;49.868;8.646;2023-09-30T08:59:44;13.60;;;4.75;;
71207;SDS011;58938;49.868;8.646;2023-09-30T09:02:12;11.70;;;4.40;;
71207;SDS011;58938;49.868;8.646;2023-09-30T09:04:38;10.57;;;4.60;;
71207;SDS011;58938;49.868;8.646;2023-09-30T09:07:03;11.43;;;4.83;;
71207;SDS011;58938;49.868;8.646;2023-09-30T09:09:29;11.80;;;4.65;;
71207;SDS011;58938;49.868;8.646;2023-09-30T09:11:57;10.68;;;4.53;;
71207;SDS011;58938;49.868;8.646;2023-09-30T09:14:36;14.13;;;4.60;;
71207;SDS011;58938;49.868;8.646;2023-09-30T09:17:02;11.43;;;3.80;;
71207;SDS011;58938;49.868;8.646;2023-09-30T09:19:29;10.68;;;3.97;;
71207;SDS011;58938;49.868;8.646;2023-09-30T09:22:00;12.73;;;4.45;;
71207;SDS011;58938;49.868;8.646;2023-09-30T09:24:26;11.77;;;3.90;;
71207;SDS011;58938;49.868;8.646;2023-09-30T09:26:52;10.68;;;3.90;;
71207;SDS011;58938;49.868;8.646;2023-09-30T09:29:29;11.53;;;4.00;;
71207;SDS011;58938;49.868;8.646;2023-09-30T09:32:05;10.05;;;3.65;;
71207;SDS011;58938;49.868;8.646;2023-09-30T09:34:32;9.05;;;3.53;;
71207;SDS011;58938;49.868;8.646;2023-09-30T09:36:58;7.43;;;2.75;;
71207;SDS011;58938;49.868;8.646;2023-09-30T09:39:30;11.35;;;3.65;;
71207;SDS011;58938;49.868;8.646;2023-09-30T09:41:56;8.87;;;3.00;;
71207;SDS011;58938;49.868;8.646;2023-09-30T09:44:23;14.60;;;3.55;;
71207;SDS011;58938;49.868;8.646;2023-09-30T09:46:53;8.38;;;3.55;;
71207;SDS011;58938;49.868;8.646;2023-09-30T09:49:19;8.77;;;3.00;;
71207;SDS011;58938;49.868;8.646;2023-09-30T09:51:46;7.95;;;3.22;;
71207;SDS011;58938;49.868;8.646;2023-09-30T09:54:13;12.40;;;3.17;;
71207;SDS011;58938;49.868;8.646;2023-09-30T09:56:41;11.77;;;3.55;;
71207;SDS011;58938;49.868;8.646;2023-09-30T09:59:08;10.50;;;3.67;;
71207;SDS011;58938;49.868;8.646;2023-09-30T10:01:35;11.80;;;3.67;;
71207;SDS011;58938;49.868;8.646;2023-09-30T10:04:04;7.22;;;3.63;;
71207;SDS011;58938;49.868;8.646;2023-09-30T10:06:30;12.13;;;4.10;;
71207;SDS011;58938;49.868;8.646;2023-09-30T10:09:03;8.45;;;3.13;;
71207;SDS011;58938;49.868;8.646;2023-09-30T10:11:30;12.20;;;3.60;;
71207;SDS011;58938;49.868;8.646;2023-09-30T10:13:57;8.30;;;4.00;;
71207;SDS011;58938;49.868;8.646;2023-09-30T10:16:49;9.43;;;4.05;;
71207;SDS011;58938;49.868;8.646;2023-09-30T10:22:19;8.63;;;3.38;;
71207;SDS011;58938;49.868;8.646;2023-09-30T10:24:33;8.50;;;3.75;;
71207;SDS011;58938;49.868;8.646;2023-09-30T10:29:44;8.47;;;3.60;;
71207;SDS011;58938;49.868;8.646;2023-09-30T10:32:10;9.05;;;4.03;;
71207;SDS011;58938;49.868;8.646;2023-09-30T10:34:36;9.43;;;3.20;;
71207;SDS011;58938;49.868;8.646;2023-09-30T10:37:20;10.87;;;3.90;;
71207;SDS011;58938;49.868;8.646;2023-09-30T10:39:53;13.48;;;3.75;;
71207;SDS011;58938;49.868;8.646;2023-09-30T10:45:05;11.18;;;4.25;;
71207;SDS011;58938;49.868;8.646;2023-09-30T10:49:57;13.87;;;5.93;;
71207;SDS011;58938;49.868;8.646;2023-09-30T10:52:23;12.77;;;3.92;;
71207;SDS011;58938;49.868;8.646;2023-09-30T10:54:49;10.35;;;3.50;;
71207;SDS011;58938;49.868;8.646;2023-09-30T10:57:26;9.05;;;3.80;;
71207;SDS011;58938;49.868;8.646;2023-09-30T11:00:08;10.05;;;3.15;;
71207;SDS011;58938;49.868;8.646;2023-09-30T11:02:39;8.40;;;2.97;;
71207;SDS011;58938;49.868;8.646;2023-09-30T11:05:13;10.68;;;3.50;;
71207;SDS011;58938;49.868;8.646;2023-09-30T11:07:39;8.55;;;3.70;;
71207;SDS011;58938;49.868;8.646;2023-09-30T11:10:05;8.55;;;2.90;;
71207;SDS011;58938;49.868;8.646;2023-09-30T11:12:31;10.77;;;3.30;;
71207;SDS011;58938;49.868;8.646;2023-09-30T11:15:01;6.97;;;3.27;;
71207;SDS011;58938;49.868;8.646;2023-09-30T11:17:27;8.70;;;3.55;;
71207;SDS011;58938;49.868;8.646;2023-09-30T11:19:54;13.13;;;3.95;;
71207;SDS011;58938;49.868;8.646;2023-09-30T11:22:20;7.65;;;3.33;;
71207;SDS011;58938;49.868;8.646;2023-09-30T11:24:46;9.38;;;3.60;;
71207;SDS011;58938;49.868;8.646;2023-09-30T11:27:12;9.40;;;3.40;;
71207;SDS011;58938;49.868;8.646;2023-09-30T11:29:48;9.57;;;3.22;;
71207;SDS011;58938;49.868;8.646;2023-09-30T11:32:27;10.95;;;3.33;;
71207;SDS011;58938;49.868;8.646;2023-09-30T11:34:54;10.88;;;4.95;;
71207;SDS011;58938;49.868;8.646;2023-09-30T11:37:20;10.05;;;4.60;;
71207;SDS011;58938;49.868;8.646;2023-09-30T11:39:47;9.23;;;3.33;;
71207;SDS011;58938;49.868;8.646;2023-09-30T11:42:16;9.13;;;4.20;;
71207;SDS011;58938;49.868;8.646;2023-09-30T11:44:44;11.38;;;3.40;;
71207;SDS011;58938;49.868;8.646;2023-09-30T11:47:12;11.80;;;3.60;;
71207;SDS011;58938;49.868;8.646;2023-09-30T11:49:39;9.70;;;3.67;;
71207;SDS011;58938;49.868;8.646;2023-09-30T11:52:06;7.07;;;3.13;;
71207;SDS011;58938;49.868;8.646;2023-09-30T11:54:36;9.63;;;3.22;;
71207;SDS011;58938;49.868;8.646;2023-09-30T11:57:06;10.30;;;3.50;;
71207;SDS011;58938;49.868;8.646;2023-09-30T11:59:34;9.88;;;3.72;;
71207;SDS011;58938;49.868;8.646;2023-09-30T12:02:01;11.70;;;5.22;;
71207;SDS011;58938;49.868;8.646;2023-09-30T12:04:28;8.30;;;3.60;;
71207;SDS011;58938;49.868;8.646;2023-09-30T12:06:54;8.10;;;3.15;;
71207;SDS011;58938;49.868;8.646;2023-09-30T12:09:22;7.60;;;3.05;;
71207;SDS011;58938;49.868;8.646;2023-09-30T12:11:50;8.52;;;3.50;;
71207;SDS011;58938;49.868;8.646;2023-09-30T12:14:16;9.82;;;3.50;;
71207;SDS011;58938;49.868;8.646;2023-09-30T12:16:42;9.03;;;3.60;;
71207;SDS011;58938;49.868;8.646;2023-09-30T12:19:10;7.97;;;3.53;;
71207;SDS011;58938;49.868;8.646;2023-09-30T12:21:36;10.20;;;3.55;;
71207;SDS011;58938;49.868;8.646;2023-09-30T12:24:02;10.27;;;4.05;;
71207;SDS011;58938;49.868;8.646;2023-09-30T12:26:29;11.33;;;4.00;;
71207;SDS011;58938;49.868;8.646;2023-09-30T12:28:56;11.60;;;3.33;;
71207;SDS011;58938;49.868;8.646;2023-09-30T12:31:22;10.25;;;3.92;;
71207;SDS011;58938;49.868;8.646;2023-09-30T12:33:48;10.27;;;3.35;;
71207;SDS011;58938;49.868;8.646;2023-09-30T12:36:19;6.85;;;3.10;;
71207;SDS011;58938;49.868;8.646;2023-09-30T12:38:45;9.07;;;2.80;;
71207;SDS011;58938;49.868;8.646;2023-09-30T12:41:11;9.07;;;3.08;;
71207;SDS011;58938;49.868;8.646;2023-09-30T12:43:37;10.63;;;3.25;;
71207;SDS011;58938;49.868;8.646;2023-09-30T12:46:03;10.02;;;3.55;;
71207;SDS011;58938;49.868;8.646;2023-09-30T12:48:32;8.17;;;3.50;;
71207;SDS011;58938;49.868;8.646;2023-09-30T12:50:58;9.15;;;3.22;;
71207;SDS011;58938;49.868;8.646;2023-09-30T12:53:24;9.65;;;3.05;;
71207;SDS011;58938;49.868;8.646;2023-09-30T12:55:51;9.20;;;3.90;;
71207;SDS011;58938;49.868;8.646;2023-09-30T12:58:17;10.00;;;3.87;;
71207;SDS011;58938;49.868;8.646;2023-09-30T13:00:43;7.97;;;3.13;;
71207;SDS011;58938;49.868;8.646;2023-09-30T13:03:09;10.73;;;3.70;;
71207;SDS011;58938;49.868;8.646;2023-09-30T13:05:37;8.90;;;3.38;;
71207;SDS011;58938;49.868;8.646;2023-09-30T13:08:03;8.27;;;3.63;;
71207;SDS011;58938;49.868;8.646;2023-09-30T13:10:29;10.35;;;3.60;;
71207;SDS011;58938;49.868;8.646;2023-09-30T13:12:55;7.30;;;3.33;;
71207;SDS011;58938;49.868;8.646;2023-09-30T13:15:22;13.80;;;4.63;;
71207;SDS011;58938;49.868;8.646;2023-09-30T13:17:51;9.98;;;3.60;;
71207;SDS011;58938;49.868;8.646;2023-09-30T13:20:17;8.60;;;3.20;;
71207;SDS011;58938;49.868;8.646;2023-09-30T13:22:43;8.82;;;3.65;;
71207;SDS011;58938;49.868;8.646;2023-09-30T13:25:09;8.43;;;3.30;;
71207;SDS011;58938;49.868;8.646;2023-09-30T13:27:37;8.68;;;3.10;;
71207;SDS011;58938;49.868;8.646;2023-09-30T13:30:03;7.73;;;3.43;;
71207;SDS011;58938;49.868;8.646;2023-09-30T13:32:29;8.60;;;3.58;;
71207;SDS011;58938;49.868;8.646;2023-09-30T13:34:57;7.57;;;3.85;;
71207;SDS011;58938;49.868;8.646;2023-09-30T13:37:23;9.65;;;3.28;;
71207;SDS011;58938;49.868;8.646;2023-09-30T13:39:54;10.75;;;3.58;;
71207;SDS011;58938;49.868;8.646;2023-09-30T13:42:20;10.40;;;3.23;;
71207;SDS011;58938;49.868;8.646;2023-09-30T13:44:46;8.05;;;3.33;;
71207;SDS011;58938;49.868;8.646;2023-09-30T13:47:13;7.88;;;3.25;;
71207;SDS011;58938;49.868;8.646;2023-09-30T13:49:38;8.73;;;3.80;;
71207;SDS011;58938;49.868;8.646;2023-09-30T13:52:04;7.70;;;4.00;;
71207;SDS011;58938;49.868;8.646;2023-09-30T13:54:30;8.60;;;3.60;;
71207;SDS011;58938;49.868;8.646;2023-09-30T13:56:56;8.48;;;3.85;;
71207;SDS011;58938;49.868;8.646;2023-09-30T13:59:22;8.75;;;2.80;;
71207;SDS011;58938;49.868;8.646;2023-09-30T14:01:48;7.50;;;2.80;;
71207;SDS011;58938;49.868;8.646;2023-09-30T14:04:15;9.20;;;3.07;;
71207;SDS011;58938;49.868;8.646;2023-09-30T14:06:41;8.30;;;3.22;;
71207;SDS011;58938;49.868;8.646;2023-09-30T14:09:07;8.18;;;3.63;;
71207;SDS011;58938;49.868;8.646;2023-09-30T14:11:40;9.50;;;3.35;;
71207;SDS011;58938;49.868;8.646;2023-09-30T14:14:06;7.97;;;3.13;;
71207;SDS011;58938;49.868;8.646;2023-09-30T14:16:34;8.07;;;3.53;;
71207;SDS011;58938;49.868;8.646;2023-09-30T14:19:00;9.45;;;3.20;;
71207;SDS011;58938;49.868;8.646;2023-09-30T14:21:26;8.93;;;3.40;;
71207;SDS011;58938;49.868;8.646;2023-09-30T14:23:53;10.00;;;3.75;;
71207;SDS011;58938;49.868;8.646;2023-09-30T14:26:19;11.43;;;3.33;;
71207;SDS011;58938;49.868;8.646;2023-09-30T14:28:45;7.93;;;3.20;;
71207;SDS011;58938;49.868;8.646;2023-09-30T14:31:11;8.50;;;3.90;;
71207;SDS011;58938;49.868;8.646;2023-09-30T14:33:38;6.35;;;3.00;;
71207;SDS011;58938;49.868;8.646;2023-09-30T14:36:04;7.83;;;3.60;;
71207;SDS011;58938;49.868;8.646;2023-09-30T14:38:33;6.70;;;3.17;;
71207;SDS011;58938;49.868;8.646;2023-09-30T14:40:59;8.52;;;4.10;;
71207;SDS011;58938;49.868;8.646;2023-09-30T14:43:25;12.63;;;3.63;;
71207;SDS011;58938;49.868;8.646;2023-09-30T14:45:51;6.65;;;3.22;;
71207;SDS011;58938;49.868;8.646;2023-09-30T14:48:17;7.40;;;3.13;;
71207;SDS011;58938;49.868;8.646;2023-09-30T14:50:50;7.28;;;3.22;;